| time (UTC) | temp F | wind direction | speed knots | gust knots | rain 1hr in | rain 24hr in | rain mn in | humidity % | barometer mb |
| 20260505124957 | 68 | 14 | 4.3 | 10.4 | 0.00 | 0.00 | 0.00 | 100 | |
| 20260505124457 | 69 | 322 | 4.3 | 13.0 | 0.00 | 0.00 | 0.00 | 100 | |
| 20260505123957 | 68 | 32 | 2.6 | 10.4 | 0.00 | 0.00 | 0.00 | 100 | |
| 20260505123457 | 68 | 329 | 8.7 | 9.6 | 0.00 | 0.00 | 0.00 | 100 | |
| 20260505122957 | 68 | 82 | 7.0 | 9.6 | 0.00 | 0.00 | 0.00 | 100 | |
| 20260505122457 | 68 | 338 | 7.0 | 9.6 | 0.00 | 0.00 | 0.00 | 100 | |
| 20260505121957 | 68 | 26 | 1.7 | 8.7 | 0.00 | 0.00 | 0.00 | 100 | |
| 20260505121457 | 68 | 355 | 7.0 | 10.4 | 0.00 | 0.00 | 0.00 | 100 | |
| 20260505120957 | 68 | 344 | 9.6 | 9.6 | 0.00 | 0.00 | 0.00 | 100 | |
| 20260505120457 | 68 | 337 | 4.3 | 7.8 | 0.00 | 0.00 | 0.00 | 100 | |
| 20260505115957 | 68 | 97 | 2.6 | 8.7 | 0.00 | 0.00 | 0.00 | 100 | |
| 20260505115457 | 68 | 341 | 5.2 | 10.4 | 0.00 | 0.00 | 0.00 | 100 | |
| 20260505114957 | 68 | 327 | 4.3 | 7.8 | 0.00 | 0.00 | 0.00 | 100 | |
| 20260505114457 | 68 | 139 | 0.9 | 6.1 | 0.00 | 0.00 | 0.00 | 100 | |
| 20260505113957 | 68 | 315 | 1.7 | 7.0 | 0.00 | 0.00 | 0.00 | 100 | |
| 20260505113457 | 68 | 112 | 0.0 | 9.6 | 0.00 | 0.00 | 0.00 | 100 | |
| 20260505112957 | 68 | 300 | 4.3 | 8.7 | 0.00 | 0.00 | 0.00 | 100 | |
| 20260505112457 | 68 | 153 | 0.0 | 10.4 | 0.00 | 0.00 | 0.00 | 100 | |
| 20260505111957 | 68 | 305 | 7.0 | 7.0 | 0.00 | 0.00 | 0.00 | 100 | |
| 20260505111457 | 68 | 21 | 6.1 | 7.8 | 0.00 | 0.00 | 0.00 | 100 | |
| 20260505110957 | 68 | 11 | 1.7 | 10.4 | 0.00 | 0.00 | 0.00 | 100 | |
| 20260505110457 | 68 | 355 | 5.2 | 8.7 | 0.00 | 0.00 | 0.00 | 100 | |
| 20260505101957 | 67 | 286 | 1.7 | 3.5 | 0.00 | 0.00 | 0.00 | 100 | |
| 20260505101457 | 67 | 338 | 5.2 | 5.2 | 0.00 | 0.00 | 0.00 | 100 | |
| 20260505100957 | 67 | 66 | 1.7 | 4.3 | 0.00 | 0.00 | 0.00 | 100 | |
| 20260505100457 | 66 | 43 | 0.0 | 1.7 | 0.00 | 0.00 | 0.00 | 100 | |
| 20260505095957 | 66 | 21 | 0.0 | 1.7 | 0.00 | 0.00 | 0.00 | 100 | |
| 20260505095457 | 66 | 84 | 0.0 | 3.5 | 0.00 | 0.00 | 0.00 | 100 | |
| 20260505094957 | 66 | 109 | 0.0 | 3.5 | 0.00 | 0.00 | 0.00 | 100 | |
| 20260505094457 | 66 | 32 | 2.6 | 7.0 | 0.00 | 0.00 | 0.00 | 100 | |
| 20260505093957 | 66 | 59 | 0.0 | 3.5 | 0.00 | 0.00 | 0.00 | 100 | |
| 20260505093457 | 66 | 21 | 3.5 | 4.3 | 0.00 | 0.00 | 0.00 | 100 | |
| 20260505092957 | 66 | 66 | 1.7 | 6.1 | 0.00 | 0.00 | 0.00 | 100 | |
| 20260505092457 | 66 | 352 | 5.2 | 6.1 | 0.00 | 0.00 | 0.00 | 100 | |
| 20260505091957 | 66 | 351 | 1.7 | 5.2 | 0.00 | 0.00 | 0.00 | 100 | |
| 20260505091457 | 66 | 105 | 3.5 | 6.1 | 0.00 | 0.00 | 0.00 | 100 | |
| 20260505091009 | 66 | 84 | 5.2 | 6.1 | 0.00 | 0.00 | 0.00 | 100 | |
| 20260505090457 | 65 | 22 | 2.6 | 3.5 | 0.00 | 0.00 | 0.00 | 100 | |
| 20260505085957 | 66 | 8 | 2.6 | 5.2 | 0.00 | 0.00 | 0.00 | 100 | |
| 20260505085457 | 65 | 68 | 0.9 | 5.2 | 0.00 | 0.00 | 0.00 | 100 | |
| 20260505084957 | 65 | 46 | 3.5 | 5.2 | 0.00 | 0.00 | 0.00 | 100 | |
| 20260505084457 | 65 | 59 | 0.9 | 4.3 | 0.00 | 0.00 | 0.00 | 100 | |
| 20260505083957 | 66 | 75 | 4.3 | 5.2 | 0.00 | 0.00 | 0.00 | 100 | |
| 20260505083457 | 65 | 40 | 0.9 | 5.2 | 0.00 | 0.00 | 0.00 | 100 | |
| 20260505082957 | 65 | 82 | 0.9 | 3.5 | 0.00 | 0.00 | 0.00 | 100 | |
| 20260505082457 | 65 | 40 | 1.7 | 4.3 | 0.00 | 0.00 | 0.00 | 100 | |
| 20260505081957 | 65 | 67 | 1.7 | 4.3 | 0.00 | 0.00 | 0.00 | 100 | |
| 20260505081457 | 65 | 88 | 2.6 | 2.6 | 0.00 | 0.00 | 0.00 | 100 | |
| 20260505080957 | 64 | 95 | 0.0 | 2.6 | 0.00 | 0.00 | 0.00 | 100 | |
| 20260505080457 | 64 | 53 | 0.9 | 4.3 | 0.00 | 0.00 | 0.00 | 100 | |
| 20260505075957 | 65 | 60 | 0.9 | 1.7 | 0.00 | 0.00 | 0.00 | 100 | |
| 20260505075457 | 64 | 167 | 0.0 | 0.0 | 0.00 | 0.00 | 0.00 | 100 | |
| 20260505074957 | 64 | 167 | 0.0 | 0.0 | 0.00 | 0.00 | 0.00 | 100 | |
| 20260505074457 | 64 | 167 | 0.0 | 0.0 | 0.00 | 0.00 | 0.00 | 100 | |
| 20260505073957 | 64 | 167 | 0.0 | 0.0 | 0.00 | 0.00 | 0.00 | 100 | |
| 20260505073457 | 64 | 220 | 0.0 | 0.9 | 0.00 | 0.00 | 0.00 | 100 | |
| 20260505072957 | 64 | 203 | 0.0 | 0.9 | 0.00 | 0.00 | 0.00 | 100 | |
| 20260505072457 | 64 | 194 | 0.0 | 1.7 | 0.00 | 0.00 | 0.00 | 100 | |
| 20260505071957 | 64 | 213 | 0.9 | 1.7 | 0.00 | 0.00 | 0.00 | 100 | |
| 20260505071457 | 64 | 132 | 0.0 | 0.0 | 0.00 | 0.00 | 0.00 | 100 | |
| 20260505070957 | 64 | 132 | 0.0 | 0.0 | 0.00 | 0.00 | 0.00 | 100 | |
| 20260505070457 | 64 | 192 | 0.0 | 0.9 | 0.00 | 0.00 | 0.00 | 100 | |
| 20260505065957 | 64 | 192 | 0.0 | 0.0 | 0.00 | 0.00 | 0.00 | 100 | |
| 20260505065457 | 64 | 192 | 0.0 | 0.9 | 0.00 | 0.00 | 0.00 | 100 | |
| 20260505064957 | 64 | 172 | 0.0 | 0.0 | 0.00 | 0.00 | 0.00 | 100 | |
| 20260505064457 | 64 | 172 | 0.0 | 2.6 | 0.00 | 0.00 | 0.00 | 100 | |
| 20260505063957 | 64 | 227 | 1.7 | 2.6 | 0.00 | 0.00 | 0.00 | 100 | |
| 20260505063457 | 64 | 85 | 0.0 | 1.7 | 0.00 | 0.00 | 0.00 | 100 | |
| 20260505062957 | 64 | 250 | 1.7 | 1.7 | 0.00 | 0.00 | 0.00 | 100 | |
| 20260505062457 | 64 | 251 | 0.0 | 0.9 | 0.00 | 0.00 | 0.00 | 100 | |
| 20260505061957 | 64 | 227 | 0.0 | 1.7 | 0.00 | 0.00 | 0.00 | 100 | |
| 20260505061457 | 64 | 210 | 0.0 | 0.0 | 0.00 | 0.00 | 0.00 | 100 | |
| 20260505060957 | 64 | 210 | 0.0 | 0.0 | 0.00 | 0.00 | 0.00 | 100 | |
| 20260505060457 | 64 | 210 | 0.0 | 0.0 | 0.00 | 0.00 | 0.00 | 100 | |
| 20260505055957 | 64 | 210 | 0.0 | 0.0 | 0.00 | 0.00 | 0.00 | 100 | |
| 20260505055457 | 64 | 237 | 0.0 | 0.9 | 0.00 | 0.00 | 0.00 | 100 | |
| 20260505054957 | 64 | 158 | 0.0 | 1.7 | 0.00 | 0.00 | 0.00 | 100 | |
| 20260505054457 | 64 | 234 | 0.9 | 0.9 | 0.00 | 0.00 | 0.00 | 100 | |
| 20260505053957 | 64 | 248 | 0.0 | 1.7 | 0.00 | 0.00 | 0.00 | 100 | |
| 20260505053457 | 64 | 213 | 0.9 | 1.7 | 0.00 | 0.00 | 0.00 | 100 | |
| 20260505052957 | 64 | 180 | 0.0 | 0.0 | 0.00 | 0.00 | 0.00 | 100 | |
| 20260505052457 | 64 | 223 | 0.0 | 0.0 | 0.00 | 0.00 | 0.00 | 100 | |
| 20260505051957 | 64 | 139 | 0.0 | 0.9 | 0.00 | 0.00 | 0.00 | 100 | |
| 20260505051457 | 64 | 191 | 0.0 | 1.7 | 0.00 | 0.00 | 0.00 | 100 | |
| 20260505050957 | 64 | 177 | 0.9 | 1.7 | 0.00 | 0.00 | 0.00 | 100 | |
| 20260505050457 | 65 | 174 | 0.9 | 1.7 | 0.00 | 0.00 | 0.00 | 100 | |
| 20260505041457 | 65 | 206 | 0.0 | 1.7 | 0.00 | 0.00 | 0.00 | 100 | |
| 20260505040957 | 65 | 119 | 0.0 | 1.7 | 0.00 | 0.00 | 0.00 | 100 | |
| 20260505040457 | 64 | 199 | 0.0 | 2.6 | 0.00 | 0.00 | 0.00 | 100 | |
| 20260505035957 | 65 | 232 | 1.7 | 1.7 | 0.00 | 0.00 | 0.00 | 100 | |
| 20260505035457 | 65 | 172 | 0.0 | 0.0 | 0.00 | 0.00 | 0.00 | 100 | |
| 20260505034957 | 65 | 146 | 0.0 | 1.7 | 0.00 | 0.00 | 0.00 | 100 | |
| 20260505034457 | 65 | 233 | 0.9 | 0.9 | 0.00 | 0.00 | 0.00 | 100 | |
| 20260505033957 | 65 | 223 | 0.0 | 2.6 | 0.00 | 0.00 | 0.00 | 100 | |
| 20260505033457 | 65 | 172 | 0.0 | 2.6 | 0.00 | 0.00 | 0.00 | 100 | |
| 20260505032957 | 64 | 220 | 0.9 | 1.7 | 0.00 | 0.00 | 0.00 | 100 | |
| 20260505032457 | 64 | 149 | 0.0 | 0.0 | 0.00 | 0.00 | 0.00 | 100 | |
| 20260505031957 | 65 | 149 | 0.0 | 0.0 | 0.00 | 0.00 | 0.00 | 100 | |
| 20260505031457 | 65 | 149 | 0.0 | 0.0 | 0.00 | 0.00 | 0.00 | 100 | |
| 20260505030957 | 65 | 28 | 0.0 | 0.0 | 0.00 | 0.00 | 0.00 | 100 | |
| 20260505030457 | 65 | 28 | 0.0 | 0.0 | 0.00 | 0.00 | 0.00 | 100 | |
| 20260505025957 | 65 | 28 | 0.0 | 0.0 | 0.00 | 0.00 | 0.00 | 100 | |
| 20260505025457 | 65 | 28 | 0.0 | 0.0 | 0.00 | 0.00 | 0.00 | 100 | |
| 20260505024957 | 64 | 28 | 0.0 | 0.0 | 0.00 | 0.00 | 0.00 | 100 | |
| 20260505024457 | 65 | 28 | 0.0 | 0.9 | 0.00 | 0.00 | 0.00 | 100 | |
| 20260505023957 | 66 | 49 | 0.0 | 0.0 | 0.00 | 0.00 | 0.00 | 100 | |
| 20260505023457 | 65 | 49 | 0.0 | 1.7 | 0.00 | 0.00 | 0.00 | 100 | |
| 20260505022957 | 65 | 73 | 0.0 | 1.7 | 0.00 | 0.00 | 0.00 | 100 | |
| 20260505022457 | 65 | 82 | 0.0 | 1.7 | 0.00 | 0.00 | 0.00 | 100 | |
| 20260505021957 | 65 | 85 | 1.7 | 2.6 | 0.00 | 0.00 | 0.00 | 100 | |
| 20260505021457 | 65 | 63 | 1.7 | 1.7 | 0.00 | 0.00 | 0.00 | 100 | |
| 20260505020957 | 65 | 106 | 0.0 | 1.7 | 0.00 | 0.00 | 0.00 | 100 | |
| 20260505020457 | 65 | 59 | 0.9 | 0.9 | 0.00 | 0.00 | 0.00 | 100 | |
| 20260505015958 | 66 | 67 | 0.0 | 0.9 | 0.00 | 0.00 | 0.00 | 100 | |
| 20260505015457 | 66 | 19 | 0.0 | 1.7 | 0.00 | 0.00 | 0.00 | 100 | |
| 20260505014957 | 65 | 22 | 1.7 | 1.7 | 0.00 | 0.00 | 0.00 | 100 | |
| 20260505014457 | 66 | 12 | 1.7 | 1.7 | 0.00 | 0.00 | 0.00 | 100 | |
| 20260505013957 | 66 | 21 | 0.0 | 1.7 | 0.00 | 0.00 | 0.00 | 100 | |
| 20260505013457 | 65 | 43 | 0.0 | 1.7 | 0.00 | 0.00 | 0.00 | 100 | |
| 20260505012957 | 66 | 61 | 0.0 | 1.7 | 0.00 | 0.00 | 0.00 | 100 | |
| 20260505012457 | 66 | 61 | 0.9 | 1.7 | 0.00 | 0.00 | 0.00 | 100 | |
| 20260505011957 | 65 | 338 | 0.0 | 0.9 | 0.00 | 0.00 | 0.00 | 100 | |
| 20260505011457 | 65 | 23 | 0.9 | 1.7 | 0.00 | 0.00 | 0.00 | 100 | |
| 20260505010957 | 66 | 21 | 0.0 | 1.7 | 0.00 | 0.00 | 0.00 | 100 | |
| 20260505010457 | 66 | 29 | 0.0 | 1.7 | 0.00 | 0.00 | 0.00 | 100 | |
| 20260505005957 | 66 | 11 | 0.0 | 0.9 | 0.00 | 0.00 | 0.00 | 100 | |
| 20260505005457 | 66 | 67 | 0.0 | 0.9 | 0.00 | 0.00 | 0.00 | 100 | |
| 20260505004957 | 66 | 77 | 0.0 | 1.7 | 0.00 | 0.00 | 0.00 | 100 | |
| 20260505004457 | 66 | 68 | 0.9 | 1.7 | 0.00 | 0.00 | 0.00 | 100 | |
| 20260505003958 | 66 | 53 | 0.9 | 1.7 | 0.00 | 0.00 | 0.00 | 100 | |
| 20260505003457 | 66 | 14 | 0.9 | 1.7 | 0.00 | 0.00 | 0.00 | 100 | |
| 20260505002957 | 66 | 74 | 0.0 | 1.7 | 0.00 | 0.00 | 0.00 | 100 | |
| 20260505002457 | 66 | 18 | 0.9 | 2.6 | 0.00 | 0.00 | 0.00 | 100 | |
| 20260505001957 | 66 | 54 | 0.9 | 2.6 | 0.00 | 0.00 | 0.00 | 100 | |
| 20260505001458 | 66 | 25 | 1.7 | 2.6 | 0.00 | 0.00 | 0.00 | 100 | |
| 20260505000957 | 66 | 29 | 1.7 | 2.6 | 0.00 | 0.00 | 0.00 | 100 | |
| 20260505000457 | 66 | 19 | 2.6 | 2.6 | 0.00 | 0.00 | 0.00 | 100 | |
| 20260504235957 | 66 | 42 | 1.7 | 2.6 | 0.00 | 0.00 | 0.00 | 100 | |
| 20260504235457 | 66 | 22 | 1.7 | 2.6 | 0.00 | 0.00 | 0.00 | 100 | |
| 20260504234957 | 66 | 21 | 1.7 | 2.6 | 0.00 | 0.00 | 0.00 | 100 | |
| 20260504234457 | 66 | 9 | 1.7 | 2.6 | 0.00 | 0.00 | 0.00 | 100 | |
| 20260504233957 | 66 | 18 | 0.9 | 2.6 | 0.00 | 0.00 | 0.00 | 100 | |
| 20260504233457 | 67 | 39 | 2.6 | 2.6 | 0.00 | 0.00 | 0.00 | 100 | |
| 20260504232957 | 66 | 33 | 2.6 | 2.6 | 0.00 | 0.00 | 0.00 | 100 | |
| 20260504232458 | 67 | 8 | 0.0 | 2.6 | 0.00 | 0.00 | 0.00 | 100 | |
| 20260504231958 | 67 | 35 | 0.9 | 4.3 | 0.00 | 0.00 | 0.00 | 100 | |
| 20260504231457 | 66 | 16 | 1.7 | 3.5 | 0.00 | 0.00 | 0.00 | 100 | |
| 20260504230958 | 66 | 5 | 3.5 | 3.5 | 0.00 | 0.00 | 0.00 | 100 | |
| 20260504230457 | 66 | 28 | 0.9 | 3.5 | 0.00 | 0.00 | 0.00 | 100 | |
| 20260504225957 | 67 | 14 | 1.7 | 3.5 | 0.00 | 0.00 | 0.00 | 100 | |
| 20260504225457 | 66 | 39 | 1.7 | 3.5 | 0.00 | 0.00 | 0.00 | 100 | |
| 20260504224957 | 67 | 9 | 2.6 | 3.5 | 0.00 | 0.00 | 0.00 | 100 | |
| 20260504224458 | 67 | 7 | 3.5 | 3.5 | 0.00 | 0.00 | 0.00 | 100 | |
| 20260504223958 | 67 | 21 | 1.7 | 3.5 | 0.00 | 0.00 | 0.00 | 100 | |
| 20260504223458 | 67 | 30 | 0.9 | 2.6 | 0.00 | 0.00 | 0.00 | 100 | |
| 20260504222958 | 67 | 347 | 2.6 | 4.3 | 0.00 | 0.00 | 0.00 | 100 | |
| 20260504222458 | 67 | 350 | 1.7 | 3.5 | 0.00 | 0.00 | 0.00 | 100 | |
| 20260504221958 | 67 | 354 | 1.7 | 4.3 | 0.00 | 0.00 | 0.00 | 100 | |
| 20260504221458 | 67 | 344 | 0.9 | 3.5 | 0.00 | 0.00 | 0.00 | 100 | |
| 20260504220958 | 67 | 347 | 0.9 | 3.5 | 0.00 | 0.00 | 0.00 | 100 | |
| 20260504220458 | 67 | 317 | 1.7 | 3.5 | 0.00 | 0.00 | 0.00 | 100 | |
| 20260504215958 | 67 | 40 | 0.9 | 3.5 | 0.00 | 0.00 | 0.00 | 100 | |
| 20260504215458 | 67 | 23 | 0.9 | 2.6 | 0.00 | 0.00 | 0.00 | 100 | |
| 20260504214958 | 67 | 7 | 0.9 | 2.6 | 0.00 | 0.00 | 0.00 | 100 | |
| 20260504214458 | 67 | 19 | 0.9 | 3.5 | 0.00 | 0.00 | 0.00 | 100 | |
| 20260504213958 | 67 | 12 | 2.6 | 3.5 | 0.00 | 0.00 | 0.00 | 100 | |
| 20260504213458 | 67 | 39 | 2.6 | 3.5 | 0.00 | 0.00 | 0.00 | 100 | |
| 20260504212958 | 67 | 12 | 0.0 | 2.6 | 0.00 | 0.00 | 0.00 | 100 | |
| 20260504212458 | 68 | 357 | 1.7 | 2.6 | 0.00 | 0.00 | 0.00 | 100 | |
| 20260504211958 | 68 | 54 | 1.7 | 5.2 | 0.00 | 0.00 | 0.00 | 100 | |
| 20260504211458 | 68 | 21 | 2.6 | 3.5 | 0.00 | 0.00 | 0.00 | 100 | |
| 20260504210958 | 68 | 15 | 1.7 | 3.5 | 0.00 | 0.00 | 0.00 | 100 | |
| 20260504210458 | 68 | 14 | 3.5 | 4.3 | 0.00 | 0.00 | 0.00 | 100 | |
| 20260504205958 | 68 | 22 | 4.3 | 4.3 | 0.00 | 0.00 | 0.00 | 100 | |
| 20260504205458 | 68 | 9 | 2.6 | 4.3 | 0.00 | 0.00 | 0.00 | 100 | |
| 20260504204958 | 68 | 19 | 3.5 | 4.3 | 0.00 | 0.00 | 0.00 | 100 | |
| 20260504204458 | 67 | 45 | 0.9 | 5.2 | 0.00 | 0.00 | 0.00 | 100 | |
| 20260504203958 | 68 | 348 | 1.7 | 6.1 | 0.00 | 0.00 | 0.00 | 100 | |
| 20260504203458 | 68 | 1 | 5.2 | 6.1 | 0.00 | 0.00 | 0.00 | 100 | |
| 20260504202958 | 68 | 30 | 3.5 | 6.1 | 0.00 | 0.00 | 0.00 | 100 | |
| 20260504202458 | 68 | 46 | 3.5 | 6.1 | 0.00 | 0.00 | 0.00 | 100 | |
| 20260504201958 | 68 | 52 | 5.2 | 6.1 | 0.00 | 0.00 | 0.00 | 100 | |
| 20260504201458 | 68 | 54 | 4.3 | 5.2 | 0.00 | 0.00 | 0.00 | 100 | |
| 20260504200958 | 68 | 11 | 4.3 | 4.3 | 0.00 | 0.00 | 0.00 | 100 | |
| 20260504200458 | 68 | 16 | 3.5 | 5.2 | 0.00 | 0.00 | 0.00 | 100 | |
| 20260504195958 | 68 | 337 | 3.5 | 5.2 | 0.00 | 0.00 | 0.00 | 100 | |
| 20260504195458 | 68 | 25 | 2.6 | 4.3 | 0.00 | 0.00 | 0.00 | 100 | |
| 20260504194958 | 68 | 21 | 2.6 | 5.2 | 0.00 | 0.00 | 0.00 | 100 | |
| 20260504194458 | 68 | 54 | 2.6 | 5.2 | 0.00 | 0.00 | 0.00 | 100 | |
| 20260504193958 | 68 | 305 | 1.7 | 6.1 | 0.00 | 0.00 | 0.00 | 100 | |
| 20260504193458 | 68 | 351 | 4.3 | 7.0 | 0.00 | 0.00 | 0.00 | 100 | |
| 20260504192958 | 68 | 358 | 3.5 | 7.0 | 0.00 | 0.00 | 0.00 | 100 | |
| 20260504192458 | 68 | 35 | 2.6 | 8.7 | 0.00 | 0.00 | 0.00 | 100 | |
| 20260504191958 | 68 | 340 | 3.5 | 7.0 | 0.00 | 0.00 | 0.00 | 100 | |
| 20260504191458 | 68 | 30 | 7.0 | 7.8 | 0.00 | 0.00 | 0.00 | 100 | |
| 20260504190958 | 68 | 7 | 3.5 | 9.6 | 0.00 | 0.00 | 0.00 | 100 | |
| 20260504190458 | 68 | 19 | 2.6 | 7.0 | 0.00 | 0.00 | 0.00 | 100 | |
| 20260504185958 | 68 | 57 | 3.5 | 8.7 | 0.00 | 0.00 | 0.00 | 100 | |
| 20260504185458 | 68 | 348 | 8.7 | 9.6 | 0.00 | 0.00 | 0.00 | 100 | |
| 20260504184958 | 68 | 101 | 5.2 | 9.6 | 0.00 | 0.00 | 0.00 | 100 | |
| 20260504184458 | 68 | 333 | 4.3 | 10.4 | 0.00 | 0.00 | 0.00 | 100 | |
| 20260504183958 | 68 | 16 | 5.2 | 10.4 | 0.00 | 0.00 | 0.00 | 100 | |
| 20260504183458 | 69 | 358 | 4.3 | 7.8 | 0.00 | 0.00 | 0.00 | 100 | |
| 20260504182958 | 69 | 119 | 1.7 | 10.4 | 0.00 | 0.00 | 0.00 | 100 | |
| 20260504182458 | 69 | 26 | 10.4 | 10.4 | 0.00 | 0.00 | 0.00 | 100 | |
| 20260504181958 | 69 | 358 | 3.5 | 8.7 | 0.00 | 0.00 | 0.00 | 100 | |
| 20260504181458 | 69 | 61 | 4.3 | 10.4 | 0.00 | 0.00 | 0.00 | 100 | |
| 20260504180958 | 69 | 348 | 4.3 | 8.7 | 0.00 | 0.00 | 0.00 | 100 | |
| 20260504180458 | 69 | 326 | 4.3 | 10.4 | 0.00 | 0.00 | 0.00 | 100 | |
| 20260504175958 | 69 | 18 | 6.1 | 11.3 | 0.00 | 0.00 | 0.00 | 100 | |
| 20260504175458 | 69 | 22 | 8.7 | 9.6 | 0.00 | 0.00 | 0.00 | 100 | |
| 20260504174958 | 69 | 23 | 6.1 | 11.3 | 0.00 | 0.00 | 0.00 | 100 | |
| 20260504174458 | 69 | 25 | 7.0 | 9.6 | 0.00 | 0.00 | 0.00 | 100 | |
| 20260504173958 | 69 | 11 | 3.5 | 8.7 | 0.00 | 0.00 | 0.00 | 100 | |
| 20260504173458 | 69 | 1 | 2.6 | 9.6 | 0.00 | 0.00 | 0.00 | 100 | |
| 20260504172958 | 68 | 28 | 2.6 | 10.4 | 0.00 | 0.00 | 0.00 | 100 | |
| 20260504172458 | 69 | 28 | 6.1 | 9.6 | 0.00 | 0.00 | 0.00 | 100 | |
| 20260504171958 | 69 | 33 | 3.5 | 10.4 | 0.00 | 0.00 | 0.00 | 100 | |
| 20260504171458 | 69 | 25 | 5.2 | 10.4 | 0.00 | 0.00 | 0.00 | 100 | |
| 20260504170958 | 69 | 35 | 9.6 | 9.6 | 0.00 | 0.00 | 0.00 | 100 | |
| 20260504170458 | 69 | 345 | 4.3 | 11.3 | 0.00 | 0.00 | 0.00 | 100 | |
| 20260504150958 | 70 | 355 | 7.8 | 11.3 | 0.00 | 0.00 | 0.00 | 100 | |
| 20260504150458 | 70 | 324 | 5.2 | 9.6 | 0.00 | 0.00 | 0.00 | 100 | |
| 20260504140958 | 70 | 344 | 5.2 | 9.6 | 0.00 | 0.00 | 0.00 | 100 | |
| 20260504140458 | 70 | 64 | 2.6 | 11.3 | 0.00 | 0.00 | 0.00 | 100 |